createdAt,value
2022-10-13T00:00:00.549Z,101132.56
2022-10-13T00:01:14.519Z,101130.81
2022-10-13T00:02:16.982Z,101137.78
2022-10-13T00:03:19.463Z,101139.47
2022-10-13T00:04:21.354Z,101135.82
2022-10-13T00:05:23.241Z,101137.59
2022-10-13T00:06:26.463Z,101137.69
2022-10-13T00:07:28.442Z,101139.34
2022-10-13T00:08:30.327Z,101140.22
2022-10-13T00:09:33.151Z,101137.56
2022-10-13T00:10:37.552Z,101134.77
2022-10-13T00:11:39.656Z,101144.53
2022-10-13T00:12:41.544Z,101135.79
2022-10-13T00:13:44.896Z,101132.27
2022-10-13T00:14:46.905Z,101128.69
2022-10-13T00:15:49.149Z,101132.17
2022-10-13T00:16:51.416Z,101131.28
2022-10-13T00:17:53.311Z,101131.31
2022-10-13T00:18:55.548Z,101132.96
2022-10-13T00:19:57.709Z,101130.40
2022-10-13T00:21:00.620Z,101133.09
2022-10-13T00:22:02.548Z,101132.49
2022-10-13T00:23:04.439Z,101132.49
2022-10-13T00:24:10.219Z,101136.87
2022-10-13T00:25:12.250Z,101142.19
2022-10-13T00:26:16.285Z,101136.73
2022-10-13T00:27:18.975Z,101137.56
2022-10-13T00:28:20.969Z,101123.62
2022-10-13T00:29:23.238Z,101138.45
2022-10-13T00:30:25.223Z,101151.18
2022-10-13T00:31:29.201Z,101141.33
2022-10-13T00:32:31.426Z,101143.02
2022-10-13T00:33:33.409Z,101141.55
2022-10-13T00:34:37.392Z,101139.40
2022-10-13T00:35:42.819Z,101136.67
2022-10-13T00:36:45.210Z,101134.87
2022-10-13T00:37:47.195Z,101141.08
2022-10-13T00:38:49.797Z,101140.02
2022-10-13T00:39:51.923Z,101144.57
2022-10-13T00:40:55.396Z,101141.61
2022-10-13T00:41:59.598Z,101135.13
2022-10-13T00:43:01.831Z,101134.14
2022-10-13T00:44:07.362Z,101133.19
2022-10-13T00:45:28.203Z,101133.22
2022-10-13T00:46:35.367Z,101134.05
2022-10-13T00:47:43.443Z,101132.27
2022-10-13T00:48:46.964Z,101137.56
2022-10-13T00:49:50.298Z,101129.64
2022-10-13T00:50:53.407Z,101129.44
2022-10-13T00:51:55.669Z,101139.05
2022-10-13T00:53:00.040Z,101132.86
2022-10-13T00:54:05.147Z,101133.81
2022-10-13T00:55:10.256Z,101125.06
2022-10-13T00:56:14.647Z,101131.87
2022-10-13T00:57:19.106Z,101130.23
2022-10-13T00:58:24.642Z,101130.20
2022-10-13T00:59:28.071Z,101129.27
2022-10-13T01:00:30.621Z,101126.58
2022-10-13T01:01:32.672Z,101127.36
2022-10-13T01:02:36.682Z,101131.84
2022-10-13T01:03:38.863Z,101123.95
2022-10-13T01:04:44.044Z,101131.77
2022-10-13T01:05:47.924Z,101130.92
2022-10-13T01:06:50.877Z,101111.92
2022-10-13T01:07:54.089Z,101138.84
2022-10-13T01:08:56.081Z,101130.03
2022-10-13T01:09:58.971Z,101135.45
2022-10-13T01:11:21.515Z,101131.97
2022-10-13T01:14:04.741Z,101136.05
2022-10-13T01:15:27.344Z,101129.23
2022-10-13T01:16:48.681Z,101134.64
2022-10-13T01:17:57.447Z,101135.45
2022-10-13T01:19:29.344Z,101130.12
2022-10-13T01:20:41.026Z,101131.84
2022-10-13T01:21:44.738Z,101131.77
2022-10-13T01:22:59.885Z,101135.22
2022-10-13T01:24:20.987Z,101132.56
2022-10-13T01:25:46.460Z,101132.59
2022-10-13T01:27:01.108Z,101122.92
2022-10-13T01:28:29.835Z,101124.63
2022-10-13T01:29:52.174Z,101120.39
2022-10-13T01:31:06.748Z,101129.89
2022-10-13T01:32:18.142Z,101123.73
2022-10-13T01:33:39.119Z,101129.03
2022-10-13T01:34:47.788Z,101131.64
2022-10-13T01:36:05.654Z,101114.10
2022-10-13T01:37:23.633Z,101115.77
2022-10-13T01:38:47.246Z,101128.02
2022-10-13T01:40:01.589Z,101117.59
2022-10-13T01:41:18.841Z,101109.69
2022-10-13T01:42:27.391Z,101114.00
2022-10-13T01:43:36.084Z,101116.66
2022-10-13T01:44:41.745Z,101105.25
2022-10-13T01:45:59.550Z,101121.04
2022-10-13T01:47:03.995Z,101108.70
2022-10-13T01:48:08.161Z,101108.70
2022-10-13T01:49:13.613Z,101108.66
2022-10-13T01:50:18.617Z,101109.55
2022-10-13T01:51:23.938Z,101111.26
2022-10-13T01:52:29.273Z,101113.86
2022-10-13T01:53:31.835Z,101113.82
2022-10-13T01:54:34.505Z,101118.16
2022-10-13T01:55:36.433Z,101112.08
2022-10-13T01:56:38.449Z,101110.30
2022-10-13T01:57:42.716Z,101108.48
2022-10-13T01:58:46.367Z,101110.23
2022-10-13T01:59:48.625Z,101108.41
2022-10-13T02:02:22.578Z,101114.28
2022-10-13T02:03:28.281Z,101112.80
2022-10-13T02:04:57.974Z,101115.49
2022-10-13T02:06:23.557Z,101115.49
2022-10-13T02:07:37.913Z,101112.86
2022-10-13T02:10:11.271Z,101113.42
2022-10-13T02:11:19.674Z,101118.95
2022-10-13T02:12:31.667Z,101116.31
2022-10-13T02:13:37.489Z,101108.48
2022-10-13T02:14:41.836Z,101118.95
2022-10-13T02:15:47.557Z,101119.02
2022-10-13T02:16:52.528Z,101116.31
2022-10-13T02:17:55.296Z,101113.53
2022-10-13T02:18:57.917Z,101118.87
2022-10-13T02:19:59.862Z,101121.58
2022-10-13T02:21:03.527Z,101122.39
2022-10-13T02:22:08.014Z,101117.98
2022-10-13T02:23:13.730Z,101126.66
2022-10-13T02:24:15.936Z,101127.44
2022-10-13T02:25:17.810Z,101126.02
2022-10-13T02:26:21.353Z,101121.14
2022-10-13T02:27:23.574Z,101130.64
2022-10-13T02:28:28.334Z,101117.59
2022-10-13T02:29:30.599Z,101125.69
2022-10-13T02:30:33.073Z,101125.17
2022-10-13T02:31:35.359Z,101124.20
2022-10-13T02:32:37.266Z,101120.69
2022-10-13T02:33:39.359Z,101120.05
2022-10-13T02:34:41.299Z,101122.67
2022-10-13T02:35:43.396Z,101121.58
2022-10-13T02:36:45.900Z,101122.32
2022-10-13T02:37:47.789Z,101124.95
2022-10-13T02:38:50.182Z,101121.25
2022-10-13T02:39:52.131Z,101127.59
2022-10-13T02:40:54.154Z,101133.28
2022-10-13T02:41:56.611Z,101129.82
2022-10-13T02:42:58.488Z,101121.64
2022-10-13T02:44:00.414Z,101122.32
2022-10-13T02:45:03.569Z,101121.43
2022-10-13T02:46:05.864Z,101126.66
2022-10-13T02:47:07.858Z,101123.06
2022-10-13T02:48:09.845Z,101131.04
2022-10-13T02:49:11.790Z,101131.89
2022-10-13T02:50:14.250Z,101124.14
2022-10-13T02:51:16.297Z,101127.44
2022-10-13T02:52:18.435Z,101119.66
2022-10-13T02:53:20.799Z,101115.17
2022-10-13T02:54:22.734Z,101120.36
2022-10-13T02:55:24.913Z,101115.02
2022-10-13T02:56:26.927Z,101125.55
2022-10-13T02:57:29.009Z,101118.77
2022-10-13T02:58:31.181Z,101118.87
2022-10-13T02:59:33.314Z,101122.47
2022-10-13T03:00:35.367Z,101124.42
2022-10-13T03:01:37.525Z,101126.02
2022-10-13T03:02:39.502Z,101121.50
2022-10-13T03:03:42.151Z,101124.14
2022-10-13T03:04:44.455Z,101126.80
2022-10-13T03:05:46.440Z,101126.13
2022-10-13T03:06:48.442Z,101114.75
2022-10-13T03:07:50.326Z,101121.50
2022-10-13T03:08:52.209Z,101124.92
2022-10-13T03:09:54.372Z,101120.44
2022-10-13T03:10:56.579Z,101113.46
2022-10-13T03:11:58.494Z,101116.34
2022-10-13T03:13:00.447Z,101124.95
2022-10-13T03:14:02.591Z,101120.44
2022-10-13T03:15:05.435Z,101119.58
2022-10-13T03:16:08.195Z,101118.63
2022-10-13T03:17:13.415Z,101115.13
2022-10-13T03:18:14.807Z,101119.55
2022-10-13T03:19:16.723Z,101116.91
2022-10-13T03:20:18.830Z,101123.89
2022-10-13T03:21:20.750Z,101120.44
2022-10-13T03:22:23.069Z,101117.73
2022-10-13T03:23:26.661Z,101114.20
2022-10-13T03:24:28.832Z,101119.47
2022-10-13T03:25:30.705Z,101122.96
2022-10-13T03:26:33.290Z,101121.18
2022-10-13T03:27:35.448Z,101117.80
2022-10-13T03:28:37.471Z,101121.32
2022-10-13T03:29:40.050Z,101115.09
2022-10-13T03:30:42.065Z,101116.16
2022-10-13T03:31:44.561Z,101125.70
2022-10-13T03:32:46.806Z,101122.17
2022-10-13T03:33:49.649Z,101116.98
2022-10-13T03:34:51.645Z,101128.33
2022-10-13T03:35:53.556Z,101123.81
2022-10-13T03:36:55.777Z,101128.22
2022-10-13T03:37:57.668Z,101126.66
2022-10-13T03:38:59.691Z,101127.38
2022-10-13T03:40:01.854Z,101129.16
2022-10-13T03:41:12.826Z,101123.00
2022-10-13T03:42:14.770Z,101119.51
2022-10-13T03:43:16.686Z,101128.19
2022-10-13T03:44:18.662Z,101123.74
2022-10-13T03:45:20.572Z,101118.47
2022-10-13T03:46:26.017Z,101127.30
2022-10-13T03:47:27.996Z,101130.26
2022-10-13T03:48:30.810Z,101128.48
2022-10-13T03:49:32.966Z,101130.15
2022-10-13T03:50:36.642Z,101127.44
2022-10-13T03:51:38.805Z,101121.22
2022-10-13T03:52:40.707Z,101122.96
2022-10-13T03:53:42.900Z,101122.03
2022-10-13T03:54:45.080Z,101123.81
2022-10-13T03:55:52.950Z,101128.19
2022-10-13T03:56:55.096Z,101125.52
2022-10-13T03:57:57.154Z,101132.56
2022-10-13T03:59:00.456Z,101127.22
2022-10-13T04:00:03.496Z,101131.56
2022-10-13T04:01:05.708Z,101130.71
2022-10-13T04:02:08.094Z,101132.48
2022-10-13T04:03:10.473Z,101133.34
2022-10-13T04:04:12.644Z,101134.27
2022-10-13T04:05:14.769Z,101129.97
2022-10-13T04:06:16.868Z,101136.16
2022-10-13T04:07:18.771Z,101132.85
2022-10-13T04:08:20.666Z,101134.48
2022-10-13T04:09:22.558Z,101133.56
2022-10-13T04:10:24.564Z,101137.83
2022-10-13T04:11:26.834Z,101136.02
2022-10-13T04:12:28.812Z,101096.22
2022-10-13T04:13:31.403Z,101140.42
2022-10-13T04:14:33.466Z,101135.13
2022-10-13T04:15:37.094Z,101140.39
2022-10-13T04:16:39.488Z,101138.72
2022-10-13T04:17:41.370Z,101141.28
2022-10-13T04:18:45.009Z,101139.47
2022-10-13T04:19:47.089Z,101140.31
2022-10-13T04:20:49.083Z,101142.02
2022-10-13T04:21:51.376Z,101135.80
2022-10-13T04:22:53.306Z,101138.47
2022-10-13T04:23:57.161Z,101138.50
2022-10-13T04:24:59.102Z,101140.21
2022-10-13T04:26:01.213Z,101148.03
2022-10-13T04:27:03.404Z,101140.13
2022-10-13T04:28:06.514Z,101131.38
2022-10-13T04:29:11.417Z,101137.50
2022-10-13T04:30:14.171Z,101141.06
2022-10-13T04:31:16.360Z,101146.36
2022-10-13T04:32:18.862Z,101136.02
2022-10-13T04:33:21.060Z,101135.87
2022-10-13T04:34:23.047Z,101141.06
2022-10-13T04:35:25.772Z,101147.22
2022-10-13T04:36:28.164Z,101141.91
2022-10-13T04:37:30.127Z,101144.52
2022-10-13T04:38:31.997Z,101140.88
2022-10-13T04:39:33.981Z,101140.84
2022-10-13T04:40:35.975Z,101135.56
2022-10-13T04:41:37.894Z,101128.63
2022-10-13T04:42:39.946Z,101136.50
2022-10-13T04:43:42.720Z,101132.05
2022-10-13T04:44:44.627Z,101138.13
2022-10-13T04:45:46.554Z,101131.00
2022-10-13T04:46:48.941Z,101131.89
2022-10-13T04:47:50.958Z,101131.94
2022-10-13T04:48:53.133Z,101135.23
2022-10-13T04:49:55.012Z,101141.38
2022-10-13T04:51:03.416Z,101133.33
2022-10-13T04:52:05.438Z,101136.00
2022-10-13T04:53:07.324Z,101142.09
2022-10-13T04:54:09.333Z,101134.22
2022-10-13T04:55:11.241Z,101137.09
2022-10-13T04:56:16.473Z,101149.55
2022-10-13T04:57:18.541Z,101144.28
2022-10-13T04:58:20.840Z,101146.88
2022-10-13T04:59:22.745Z,101145.14
2022-10-13T05:00:24.847Z,101142.63
2022-10-13T05:01:27.403Z,101145.58
2022-10-13T05:02:29.289Z,101148.22
2022-10-13T05:03:34.918Z,101149.78
2022-10-13T05:04:37.735Z,101141.66
2022-10-13T05:05:39.815Z,101136.31
2022-10-13T05:07:05.327Z,101133.59
2022-10-13T05:07:46.476Z,101152.16
2022-10-13T05:08:49.554Z,101147.25
2022-10-13T05:09:51.567Z,101149.00
2022-10-13T05:10:56.315Z,101150.14
2022-10-13T05:11:58.264Z,101147.41
2022-10-13T05:13:00.283Z,101147.22
2022-10-13T05:14:02.217Z,101155.83
2022-10-13T05:15:05.457Z,101155.72
2022-10-13T05:16:10.306Z,101156.67
2022-10-13T05:17:12.243Z,101150.48
2022-10-13T05:18:14.176Z,101152.73
2022-10-13T05:19:16.080Z,101159.56
2022-10-13T05:20:18.065Z,101160.30
2022-10-13T05:21:23.102Z,101159.45
2022-10-13T05:22:26.981Z,101150.65
2022-10-13T05:23:29.041Z,101160.38
2022-10-13T05:24:31.295Z,101163.86
2022-10-13T05:25:37.247Z,101164.64
2022-10-13T05:26:39.762Z,101160.19
2022-10-13T05:27:41.670Z,101163.70
2022-10-13T05:28:44.557Z,101159.25
2022-10-13T05:29:46.604Z,101160.19
2022-10-13T05:30:48.947Z,101097.11
2022-10-13T05:31:50.827Z,101163.59
2022-10-13T05:32:53.937Z,101169.67
2022-10-13T05:33:56.526Z,101165.14
2022-10-13T05:34:58.420Z,101171.22
2022-10-13T05:36:05.330Z,101167.81
2022-10-13T05:37:07.385Z,101170.25
2022-10-13T05:38:09.302Z,101168.42
2022-10-13T05:39:11.189Z,101162.27
2022-10-13T05:40:14.412Z,101160.36
2022-10-13T05:41:16.291Z,101161.21
2022-10-13T05:42:18.482Z,101164.16
2022-10-13T05:43:21.146Z,101167.45
2022-10-13T05:44:23.257Z,101166.48
2022-10-13T05:45:28.909Z,101171.64
2022-10-13T05:46:31.728Z,101167.09
2022-10-13T05:47:33.791Z,101167.09
2022-10-13T05:48:36.458Z,101167.01
2022-10-13T05:49:38.465Z,101170.29
2022-10-13T05:50:40.595Z,101168.91
2022-10-13T05:51:45.870Z,101173.13
2022-10-13T05:52:48.828Z,101172.48
2022-10-13T05:53:57.784Z,101166.41
2022-10-13T05:55:02.190Z,101173.45
2022-10-13T05:56:08.286Z,101173.21
2022-10-13T05:57:17.109Z,101171.39
2022-10-13T05:58:19.362Z,101174.27
2022-10-13T05:59:27.116Z,101177.47
2022-10-13T06:00:28.127Z,101181.37
2022-10-13T06:01:33.950Z,101186.44
2022-10-13T06:02:39.902Z,101183.84
2022-10-13T06:03:43.708Z,101182.75
2022-10-13T06:04:48.473Z,101181.04
2022-10-13T06:05:50.677Z,101180.95
2022-10-13T06:06:52.698Z,101181.85
2022-10-13T06:07:54.585Z,101171.09
2022-10-13T06:08:56.818Z,101177.82
2022-10-13T06:09:58.943Z,101185.78
2022-10-13T06:11:03.815Z,101185.61
2022-10-13T06:12:07.656Z,101187.27
2022-10-13T06:13:09.584Z,101189.94
2022-10-13T06:14:11.473Z,101186.42
2022-10-13T06:15:13.741Z,101188.38
2022-10-13T06:16:15.858Z,101181.98
2022-10-13T06:17:17.744Z,101177.39
2022-10-13T06:18:19.742Z,101185.17
2022-10-13T06:19:21.605Z,101177.13
2022-10-13T06:20:23.808Z,101184.11
2022-10-13T06:21:25.691Z,101182.15
2022-10-13T06:22:27.597Z,101171.64
2022-10-13T06:23:29.558Z,101184.66
2022-10-13T06:24:31.426Z,101184.88
2022-10-13T06:25:33.301Z,101180.39
2022-10-13T06:26:35.271Z,101184.52
2022-10-13T06:27:37.266Z,101186.13
2022-10-13T06:28:39.505Z,101178.11
2022-10-13T06:29:41.741Z,101180.75
2022-10-13T06:30:45.005Z,101181.47
2022-10-13T06:31:47.043Z,101180.39
2022-10-13T06:32:48.932Z,101179.40
2022-10-13T06:33:50.996Z,101185.53
2022-10-13T06:34:53.120Z,101180.11
2022-10-13T06:35:55.163Z,101182.13
2022-10-13T06:36:57.138Z,101186.39
2022-10-13T06:37:59.007Z,101184.64
2022-10-13T06:39:01.223Z,101178.47
2022-10-13T06:40:04.468Z,101181.90
2022-10-13T06:41:06.517Z,101181.74
2022-10-13T06:42:08.396Z,101186.53
2022-10-13T06:43:10.355Z,101182.90
2022-10-13T06:44:12.247Z,101185.54
2022-10-13T06:45:14.466Z,101181.43
2022-10-13T06:46:16.969Z,101187.88
2022-10-13T06:47:18.856Z,101184.52
2022-10-13T06:48:20.730Z,101182.50
2022-10-13T06:49:23.626Z,101186.89
2022-10-13T06:50:26.106Z,101185.33
2022-10-13T06:51:28.054Z,101184.52
2022-10-13T06:52:29.933Z,101185.47
2022-10-13T06:53:32.740Z,101191.23
2022-10-13T06:54:34.638Z,101189.96
2022-10-13T06:55:36.611Z,101190.95
2022-10-13T06:56:38.591Z,101186.56
2022-10-13T06:57:40.664Z,101187.32
2022-10-13T06:58:42.635Z,101188.75
2022-10-13T06:59:44.521Z,101185.05
2022-10-13T07:00:46.530Z,101191.44
2022-10-13T07:01:48.726Z,101188.94
2022-10-13T07:02:51.693Z,101190.48
2022-10-13T07:03:53.617Z,101194.48
2022-10-13T07:04:55.499Z,101198.88
2022-10-13T07:06:05.737Z,101183.88
2022-10-13T07:07:07.772Z,101175.75
2022-10-13T07:08:09.851Z,101184.14
2022-10-13T07:09:11.783Z,101194.61
2022-10-13T07:10:13.864Z,101190.93
2022-10-13T07:11:16.598Z,101182.45
2022-10-13T07:12:19.139Z,101191.67
2022-10-13T07:14:23.451Z,101181.59
2022-10-13T07:15:25.430Z,101188.48
2022-10-13T07:16:27.769Z,101184.59
2022-10-13T07:17:29.859Z,101183.84
2022-10-13T07:18:32.601Z,101187.53
2022-10-13T07:19:34.734Z,101181.80
2022-10-13T07:20:36.870Z,101186.67
2022-10-13T07:21:38.792Z,101182.78
2022-10-13T07:22:40.735Z,101184.84
2022-10-13T07:23:42.629Z,101187.58
2022-10-13T07:24:44.525Z,101177.81
2022-10-13T07:25:46.427Z,101184.34
2022-10-13T07:26:48.450Z,101188.44
2022-10-13T07:27:50.584Z,101187.13
2022-10-13T07:28:52.490Z,101181.90
2022-10-13T07:29:54.746Z,101187.39
2022-10-13T07:30:56.904Z,101193.13
2022-10-13T07:31:59.054Z,101183.73
2022-10-13T07:33:00.945Z,101182.09
2022-10-13T07:34:03.242Z,101187.66
2022-10-13T07:35:05.545Z,101183.42
2022-10-13T07:36:08.956Z,101188.07
2022-10-13T07:37:11.023Z,101182.25
2022-10-13T07:38:13.151Z,101188.28
2022-10-13T07:39:15.161Z,101188.92
2022-10-13T07:40:17.473Z,101191.03
2022-10-13T07:41:19.595Z,101190.88
2022-10-13T07:42:21.610Z,101182.58
2022-10-13T07:43:23.589Z,101191.30
2022-10-13T07:44:25.914Z,101182.31
2022-10-13T07:45:28.009Z,101182.06
2022-10-13T07:46:30.330Z,101181.80
2022-10-13T07:47:32.235Z,101185.75
2022-10-13T07:48:35.365Z,101183.80
2022-10-13T07:49:37.256Z,101184.80
2022-10-13T07:50:39.383Z,101175.73
2022-10-13T07:51:41.254Z,101188.48
2022-10-13T07:52:43.177Z,101188.38
2022-10-13T07:53:45.586Z,101181.89
2022-10-13T07:54:47.578Z,101187.24
2022-10-13T07:55:49.958Z,101180.55
2022-10-13T07:56:53.166Z,101183.08
2022-10-13T07:57:55.557Z,101180.14
2022-10-13T07:58:57.628Z,101182.50
2022-10-13T08:00:00.375Z,101177.20
2022-10-13T08:01:03.860Z,101175.95
2022-10-13T08:02:06.046Z,101178.46
2022-10-13T08:03:07.943Z,101177.43
2022-10-13T08:04:09.811Z,101181.60
2022-10-13T08:05:11.710Z,101177.43
2022-10-13T08:06:16.333Z,101177.20
2022-10-13T08:07:18.929Z,101183.76
2022-10-13T08:08:21.430Z,101180.26
2022-10-13T08:09:24.884Z,101185.50
2022-10-13T08:10:27.114Z,101181.78
2022-10-13T08:11:30.211Z,101173.95
2022-10-13T08:12:34.232Z,101183.16
2022-10-13T08:13:36.405Z,101185.47
2022-10-13T08:14:38.451Z,101184.32
2022-10-13T08:15:41.802Z,101189.37
2022-10-13T08:16:46.376Z,101180.08
2022-10-13T08:17:48.327Z,101174.62
2022-10-13T08:18:50.519Z,101179.56
2022-10-13T08:19:52.587Z,101182.63
2022-10-13T08:21:04.179Z,101178.95
2022-10-13T08:22:17.831Z,101181.48
2022-10-13T08:23:20.114Z,101174.38
2022-10-13T08:24:22.122Z,101178.70
2022-10-13T08:25:24.017Z,101180.22
2022-10-13T08:26:27.775Z,101178.52
2022-10-13T08:27:49.627Z,101178.17
2022-10-13T08:28:34.845Z,101174.47
2022-10-13T08:29:37.044Z,101183.22
2022-10-13T08:30:39.556Z,101176.36
2022-10-13T08:31:41.883Z,101176.36
2022-10-13T08:32:44.098Z,101183.34
2022-10-13T08:33:46.501Z,101180.11
2022-10-13T08:34:49.585Z,101181.30
2022-10-13T08:35:52.926Z,101178.41
2022-10-13T08:36:55.615Z,101179.98
2022-10-13T08:37:58.219Z,101181.53
2022-10-13T08:39:00.180Z,101174.75
2022-10-13T08:40:02.296Z,101185.69
2022-10-13T08:41:16.615Z,101183.40
2022-10-13T08:42:21.539Z,101184.98
2022-10-13T08:43:24.512Z,101180.88
2022-10-13T08:45:41.822Z,101166.06
2022-10-13T08:46:50.533Z,101174.98
2022-10-13T08:48:01.780Z,101179.13
2022-10-13T08:49:05.525Z,101174.02
2022-10-13T08:50:14.652Z,101174.02
2022-10-13T08:51:17.702Z,101176.97
2022-10-13T08:52:23.314Z,101174.81
2022-10-13T08:53:34.856Z,101178.52
2022-10-13T08:54:37.796Z,101181.66
2022-10-13T08:55:46.986Z,101187.57
2022-10-13T08:56:50.744Z,101166.98
2022-10-13T08:57:53.852Z,101184.73
2022-10-13T08:58:57.939Z,101159.37
2022-10-13T09:00:00.561Z,101177.45
2022-10-13T09:01:16.101Z,101183.64
2022-10-13T09:02:25.029Z,101181.91
2022-10-13T09:03:29.939Z,101184.86
2022-10-13T09:04:38.295Z,101189.25
2022-10-13T09:05:47.663Z,101186.96
2022-10-13T09:06:56.697Z,101186.11
2022-10-13T09:07:59.642Z,101185.58
2022-10-13T09:09:05.643Z,101183.05
2022-10-13T09:10:09.780Z,101192.63
2022-10-13T09:11:14.511Z,101191.41
2022-10-13T09:12:23.176Z,101189.30
2022-10-13T09:13:25.693Z,101188.58
2022-10-13T09:14:31.637Z,101187.35
2022-10-13T09:15:39.114Z,101184.50
2022-10-13T09:16:44.961Z,101181.79
2022-10-13T09:17:51.201Z,101187.62
2022-10-13T09:18:53.801Z,101175.01
2022-10-13T09:20:05.966Z,101188.30
2022-10-13T09:21:11.334Z,101188.82
2022-10-13T09:22:16.946Z,101184.79
2022-10-13T09:23:22.576Z,101188.30
2022-10-13T09:24:26.315Z,101185.98
2022-10-13T09:25:30.478Z,101188.36
2022-10-13T09:26:38.597Z,101186.88
2022-10-13T09:27:56.515Z,101189.25
2022-10-13T09:29:02.707Z,101183.34
2022-10-13T09:30:27.768Z,101185.67
2022-10-13T09:32:40.328Z,101186.87
2022-10-13T09:33:43.503Z,101180.45
2022-10-13T09:34:47.638Z,101184.48
2022-10-13T09:36:02.799Z,101184.55
2022-10-13T09:37:08.982Z,101181.50
2022-10-13T09:38:20.632Z,101178.78
2022-10-13T09:39:23.369Z,101182.19
2022-10-13T09:40:25.971Z,101181.73
2022-10-13T09:41:28.595Z,101177.41
2022-10-13T09:42:31.379Z,101175.54
2022-10-13T09:43:43.490Z,101176.08
2022-10-13T09:44:46.789Z,101180.31
2022-10-13T09:45:49.305Z,101177.59
2022-10-13T09:46:55.413Z,101175.54
2022-10-13T09:48:04.354Z,101172.50
2022-10-13T09:49:29.970Z,101177.55
2022-10-13T09:50:34.976Z,101167.39
2022-10-13T09:51:40.627Z,101168.63
2022-10-13T09:52:45.556Z,101175.15
2022-10-13T09:53:48.316Z,101168.78
2022-10-13T09:54:59.251Z,101168.23
2022-10-13T09:56:20.864Z,101168.66
2022-10-13T09:57:30.810Z,101172.69
2022-10-13T09:58:36.057Z,101169.78
2022-10-13T09:59:42.346Z,101168.03
2022-10-13T10:00:47.663Z,101161.61
2022-10-13T10:01:52.610Z,101167.58
2022-10-13T10:04:41.088Z,101164.02
2022-10-13T10:05:53.279Z,101172.23
2022-10-13T10:06:56.110Z,101170.36
2022-10-13T10:09:41.274Z,101168.37
2022-10-13T10:10:44.534Z,101172.48
2022-10-13T10:11:49.973Z,101164.80
2022-10-13T10:12:52.907Z,101163.69
2022-10-13T10:13:57.436Z,101163.82
2022-10-13T10:15:00.859Z,101167.84
2022-10-13T10:16:13.359Z,101161.30
2022-10-13T10:17:40.798Z,101166.73
2022-10-13T10:18:57.784Z,101165.12
2022-10-13T10:20:17.812Z,101158.52
2022-10-13T10:21:36.119Z,101164.72
2022-10-13T10:23:02.318Z,101162.64
2022-10-13T10:24:23.623Z,101160.77
2022-10-13T10:25:29.760Z,101163.77
2022-10-13T10:26:57.630Z,101152.12
2022-10-13T10:28:29.726Z,101170.73
2022-10-13T10:29:38.981Z,101169.68
2022-10-13T10:30:45.192Z,101168.36
2022-10-13T10:31:57.413Z,101166.47
2022-10-13T10:33:15.454Z,101161.99
2022-10-13T10:36:12.004Z,101156.48
2022-10-13T10:37:33.056Z,101158.95
2022-10-13T10:38:59.952Z,101156.30
2022-10-13T10:40:11.797Z,101152.77
2022-10-13T10:41:35.633Z,101161.00
2022-10-13T10:42:52.264Z,101155.23
2022-10-13T10:44:04.120Z,101150.42
2022-10-13T10:46:25.747Z,101151.65
2022-10-13T10:47:31.487Z,101153.34
2022-10-13T10:48:38.891Z,101154.30
2022-10-13T10:49:41.760Z,101149.70
2022-10-13T10:50:44.526Z,101143.85
2022-10-13T10:51:47.467Z,101143.58
2022-10-13T10:53:08.563Z,101142.55
2022-10-13T10:54:17.390Z,101141.70
2022-10-13T10:55:44.844Z,101134.50
2022-10-13T10:56:50.702Z,101149.06
2022-10-13T10:58:05.579Z,101140.48
2022-10-13T10:59:29.238Z,101138.41
2022-10-13T11:02:09.636Z,101139.12
2022-10-13T11:03:21.507Z,101141.41
2022-10-13T11:04:36.558Z,101137.52
2022-10-13T11:06:00.190Z,101142.25
2022-10-13T11:07:04.169Z,101134.70
2022-10-13T11:08:09.848Z,101143.23
2022-10-13T11:09:11.902Z,101141.16
2022-10-13T11:10:18.086Z,101142.46
2022-10-13T11:11:26.716Z,101140.97
2022-10-13T11:12:52.558Z,101145.25
2022-10-13T11:14:07.090Z,101141.67
2022-10-13T11:15:12.080Z,101139.97
2022-10-13T11:16:29.966Z,101148.58
2022-10-13T11:17:35.577Z,101140.11
2022-10-13T11:19:02.686Z,101138.82
2022-10-13T11:20:20.613Z,101142.46
2022-10-13T11:21:22.543Z,101144.84
2022-10-13T11:22:27.064Z,101142.77
2022-10-13T11:23:33.548Z,101141.03
2022-10-13T11:24:43.222Z,101142.19
2022-10-13T11:25:47.017Z,101140.03
2022-10-13T11:26:50.675Z,101140.47
2022-10-13T11:27:52.631Z,101145.78
2022-10-13T11:28:54.744Z,101140.33
2022-10-13T11:29:59.192Z,101136.83
2022-10-13T11:31:08.211Z,101136.97
2022-10-13T11:32:29.313Z,101129.06
2022-10-13T11:33:41.228Z,101147.08
2022-10-13T11:34:47.058Z,101132.58
2022-10-13T11:35:49.384Z,101134.22
2022-10-13T11:36:55.121Z,101138.27
2022-10-13T11:38:09.886Z,101140.38
2022-10-13T11:39:26.808Z,101144.84
2022-10-13T11:40:35.466Z,101144.12
2022-10-13T11:41:56.181Z,101146.06
2022-10-13T11:43:05.336Z,101148.58
2022-10-13T11:44:36.403Z,101141.06
2022-10-13T11:45:54.320Z,101148.58
2022-10-13T11:47:06.234Z,101152.88
2022-10-13T11:48:36.045Z,101143.69
2022-10-13T11:49:45.183Z,101146.61
2022-10-13T11:51:13.929Z,101134.94
2022-10-13T11:52:41.157Z,101141.30
2022-10-13T11:54:03.882Z,101147.12
2022-10-13T11:55:15.910Z,101147.83
2022-10-13T11:56:20.672Z,101140.45
2022-10-13T11:57:27.017Z,101143.30
2022-10-13T11:58:31.829Z,101139.87
2022-10-13T11:59:35.490Z,101134.46
2022-10-13T12:00:40.420Z,101128.44
2022-10-13T12:01:45.427Z,101136.53
2022-10-13T12:02:52.722Z,101134.08
2022-10-13T12:03:56.159Z,101135.61
2022-10-13T12:05:08.538Z,101134.83
2022-10-13T12:06:18.148Z,101134.06
2022-10-13T12:07:23.603Z,101135.34
2022-10-13T12:08:29.212Z,101132.31
2022-10-13T12:09:32.555Z,101135.61
2022-10-13T12:10:36.905Z,101132.17
2022-10-13T12:11:39.425Z,101125.86
2022-10-13T12:13:57.732Z,101124.16
2022-10-13T12:15:02.736Z,101127.05
2022-10-13T12:16:06.611Z,101126.16
2022-10-13T12:17:31.189Z,101122.86
2022-10-13T12:18:36.716Z,101119.16
2022-10-13T12:19:39.611Z,101121.36
2022-10-13T12:20:41.948Z,101116.84
2022-10-13T12:21:52.208Z,101123.64
2022-10-13T12:22:56.152Z,101119.66
2022-10-13T12:24:07.983Z,101120.88
2022-10-13T12:25:15.834Z,101109.48
2022-10-13T12:26:21.471Z,101113.20
2022-10-13T12:27:23.724Z,101117.52
2022-10-13T12:28:29.484Z,101117.79
2022-10-13T12:29:37.026Z,101117.79
2022-10-13T12:30:35.733Z,101119.02
2022-10-13T12:31:42.910Z,101121.36
2022-10-13T12:32:51.264Z,101118.30
2022-10-13T12:33:59.169Z,101124.02
2022-10-13T12:35:25.322Z,101126.40
2022-10-13T12:36:30.537Z,101111.11
2022-10-13T12:37:34.191Z,101121.16
2022-10-13T12:38:37.009Z,101116.59
2022-10-13T12:39:39.488Z,101115.14
2022-10-13T12:40:41.882Z,101119.25
2022-10-13T12:41:47.479Z,101121.45
2022-10-13T12:42:50.221Z,101117.23